Aérodrome :
LOGIN :

S'inscrire | Disclaimer

   EN    FR    IT 

 










Légende :    VFR   VFR Marginal   IFR   IFR Intensif   IFR Très Intensif
Visi : 
Plafond : 
>= 8 km
>= 3000ft
5 à 8 km
1000 à 3000 ft
1500m à 5 km
500 à 1000 ft
800 à 1500m
200 à 500 ft
< 800m
< 200 ft
Symboles :   Orages  Brouillard  Fortes neiges  Fortes précipitations  Vent > 20 kt
SIGMETs :   Divers  Orages  Givrage  Turbulence  Onde Orograph.  Cendres Volcan.






- Altitude de l'aérodrome : 412 ft
- Code IATA : ORE


LFOJ - Orleans

DERNIER METAR :
  • 120600Z AUTO 23010KT 9999 FEW026 BKN092 03/03 Q1006 NOSIG

METARs EXPIRÉS :
  • 120530Z AUTO 22010KT CAVOK 03/03 Q1006 NOSIG
  • 120500Z AUTO 22009KT CAVOK 03/03 Q1006
  • 120430Z AUTO 21010KT 9999 FEW047 03/03 Q1006
  • 120400Z AUTO 22011KT CAVOK 03/03 Q1007
  • 120330Z AUTO 22009KT CAVOK 03/03 Q1007

TAF AMD TAF LFOJ
Valide du 12 à 05h jusqu'au 13 à 03h UTC


120510Z 1205/1303 23012KT CAVOK
TEMPO 1213/1217 25015G25KT 4000 -SHRA BKN025TCU



MET'MAP, la Météo Aéronautique d'un coup d'oeil ! - Copyright ORBIFLY Décembre 2007 - Disclaimer

ORBIFLY MET'MAP TEAM :

Programmation & Développement : Alexandra Zaïnal
Conception & Développement : Baudouin d'Aumeries
Co-Programmation & Développement : Marc-Olivier Méhu
Soutien technique & logistique : Manuel Goepfert

Contact : metmap@orbifly.com




SOURCES & CREDITS :

   NOAA